Terminal Aerodrome Forecast
Issued by NWS

Home | Current Version | Previous Version | Text Only | Print | Product List | Glossary On
Versions: 1 2 3 4 5 6 7 8 9 10 11
000
FTUS45 KRIW 132323
TAFRKS
TAF
KRKS 132323Z 1400/1424 29010KT P6SM VCSH BKN050
     FM140030 31011KT 2SM -SHSN BKN022
     FM140400 05009KT P6SM VCSH BKN035
     FM141700 26015KT P6SM SCT080=

USA.gov is the U.S. government's official web portal to all federal, state and local government web resources and services.